createdAt,value
2023-04-30T00:02:22.930Z,101444.69
2023-04-30T00:04:55.804Z,101453.25
2023-04-30T00:07:27.509Z,101451.28
2023-04-30T00:09:58.596Z,101449.88
2023-04-30T00:12:29.114Z,101449.88
2023-04-30T00:14:59.597Z,101452.50
2023-04-30T00:17:32.872Z,101445.94
2023-04-30T00:20:05.479Z,101451.84
2023-04-30T00:22:36.760Z,101454.06
2023-04-30T00:25:12.255Z,101454.16
2023-04-30T00:27:45.775Z,101453.66
2023-04-30T00:30:17.723Z,101456.78
2023-04-30T00:32:47.793Z,101459.19
2023-04-30T00:35:17.697Z,101458.63
2023-04-30T00:37:48.041Z,101453.44
2023-04-30T00:40:34.278Z,101465.75
2023-04-30T00:43:04.580Z,101463.53
2023-04-30T00:45:33.591Z,101463.53
2023-04-30T00:48:02.175Z,101465.56
2023-04-30T00:50:32.278Z,101470.56
2023-04-30T00:53:01.519Z,101456.09
2023-04-30T00:55:30.445Z,101458.72
2023-04-30T00:57:59.523Z,101458.97
2023-04-30T01:00:28.519Z,101471.13
2023-04-30T01:02:57.535Z,101469.25
2023-04-30T01:05:26.443Z,101466.00
2023-04-30T01:07:57.404Z,101467.59
2023-04-30T01:10:30.565Z,101461.19
2023-04-30T01:13:04.169Z,101465.13
2023-04-30T01:15:37.395Z,101455.22
2023-04-30T01:18:09.168Z,101467.06
2023-04-30T01:20:40.606Z,101462.63
2023-04-30T01:23:15.433Z,101468.34
2023-04-30T01:25:46.390Z,101467.94
2023-04-30T01:28:17.666Z,101461.94
2023-04-30T01:30:46.533Z,101469.84
2023-04-30T01:33:15.087Z,101462.69
2023-04-30T01:36:02.514Z,101465.31
2023-04-30T01:38:37.879Z,101460.03
2023-04-30T01:41:10.642Z,101464.38
2023-04-30T01:43:47.067Z,101461.91
2023-04-30T01:46:20.353Z,101469.63
2023-04-30T01:48:52.989Z,101465.63
2023-04-30T01:51:25.394Z,101467.75
2023-04-30T01:53:55.726Z,101468.59
2023-04-30T01:56:28.533Z,101463.16
2023-04-30T01:58:58.787Z,101463.09
2023-04-30T02:01:28.251Z,101463.22
2023-04-30T02:03:56.986Z,101475.34
2023-04-30T02:06:28.597Z,101470.50
2023-04-30T02:09:02.496Z,101476.41
2023-04-30T02:11:31.526Z,101478.88
2023-04-30T02:14:01.440Z,101479.13
2023-04-30T02:16:29.787Z,101484.91
2023-04-30T02:18:58.211Z,101482.31
2023-04-30T02:21:38.352Z,101490.09
2023-04-30T02:24:07.470Z,101472.31
2023-04-30T02:26:36.057Z,101479.53
2023-04-30T02:29:05.816Z,101485.66
2023-04-30T02:31:34.352Z,101472.56
2023-04-30T02:34:03.055Z,101483.53
2023-04-30T02:36:36.349Z,101487.31
2023-04-30T02:39:05.008Z,101475.75
2023-04-30T02:41:33.688Z,101481.06
2023-04-30T02:44:03.427Z,101473.41
2023-04-30T02:46:33.172Z,101475.41
2023-04-30T02:49:01.688Z,101473.50
2023-04-30T02:51:30.148Z,101469.16
2023-04-30T02:53:58.482Z,101463.63
2023-04-30T02:56:26.999Z,101466.91
2023-04-30T02:58:55.384Z,101478.34
2023-04-30T03:01:23.746Z,101473.63
2023-04-30T03:03:54.068Z,101466.44
2023-04-30T03:06:22.689Z,101474.19
2023-04-30T03:08:51.221Z,101472.75
2023-04-30T03:11:19.671Z,101472.63
2023-04-30T03:14:02.237Z,101463.91
2023-04-30T03:16:31.256Z,101459.09
2023-04-30T03:19:01.006Z,101466.50
2023-04-30T03:21:30.002Z,101464.13
2023-04-30T03:23:58.436Z,101467.09
2023-04-30T03:26:27.473Z,101471.09
2023-04-30T03:28:56.084Z,101465.03
2023-04-30T03:31:24.676Z,101470.88
2023-04-30T03:33:53.211Z,101471.09
2023-04-30T03:36:23.048Z,101475.22
2023-04-30T03:38:51.435Z,101463.66
2023-04-30T03:41:19.938Z,101471.88
2023-04-30T03:43:48.423Z,101474.50
2023-04-30T03:46:16.932Z,101472.63
2023-04-30T03:48:45.683Z,101474.00
2023-04-30T03:51:14.332Z,101475.81
2023-04-30T03:53:44.178Z,101477.22
2023-04-30T03:56:14.065Z,101476.72
2023-04-30T03:58:42.544Z,101474.81
2023-04-30T04:01:11.085Z,101478.81
2023-04-30T04:03:39.599Z,101469.28
2023-04-30T04:06:08.419Z,101476.97
2023-04-30T04:08:37.454Z,101482.25
2023-04-30T04:11:07.216Z,101472.16
2023-04-30T04:13:35.787Z,101478.75
2023-04-30T04:16:04.215Z,101480.19
2023-04-30T04:18:32.864Z,101483.59
2023-04-30T04:21:01.536Z,101485.84
2023-04-30T04:23:29.995Z,101476.97
2023-04-30T04:25:58.498Z,101473.34
2023-04-30T04:28:28.726Z,101487.97
2023-04-30T04:30:57.370Z,101487.03
2023-04-30T04:33:25.870Z,101489.38
2023-04-30T04:35:54.165Z,101491.63
2023-04-30T04:38:22.895Z,101486.91
2023-04-30T04:40:54.732Z,101494.25
2023-04-30T04:43:23.183Z,101500.50
2023-04-30T04:45:53.431Z,101501.44
2023-04-30T04:48:21.906Z,101493.91
2023-04-30T04:50:50.570Z,101488.59
2023-04-30T04:53:18.850Z,101492.25
2023-04-30T04:55:47.210Z,101501.19
2023-04-30T04:58:15.834Z,101496.06
2023-04-30T05:00:45.207Z,101497.47
2023-04-30T05:03:15.238Z,101492.72
2023-04-30T05:05:44.223Z,101492.84
2023-04-30T05:08:13.306Z,101492.94
2023-04-30T05:10:41.695Z,101492.94
2023-04-30T05:13:09.984Z,101497.19
2023-04-30T05:15:39.047Z,101491.28
2023-04-30T05:18:07.604Z,101501.19
2023-04-30T05:20:37.399Z,101500.69
2023-04-30T05:23:06.198Z,101508.09
2023-04-30T05:25:34.574Z,101511.72
2023-04-30T05:28:03.399Z,101519.84
2023-04-30T05:30:31.820Z,101512.63
2023-04-30T05:33:00.416Z,101515.22
2023-04-30T05:35:28.883Z,101513.06
2023-04-30T05:37:58.886Z,101517.59
2023-04-30T05:40:27.580Z,101524.78
2023-04-30T05:42:56.432Z,101524.56
2023-04-30T05:45:24.945Z,101521.19
2023-04-30T05:47:53.656Z,101524.31
2023-04-30T05:50:22.207Z,101519.38
2023-04-30T05:52:50.898Z,101528.19
2023-04-30T05:55:20.691Z,101532.88
2023-04-30T05:57:49.312Z,101531.63
2023-04-30T06:00:17.956Z,101526.66
2023-04-30T06:02:46.380Z,101530.41
2023-04-30T06:05:16.289Z,101529.06
2023-04-30T06:07:44.923Z,101540.63
2023-04-30T06:10:13.661Z,101528.66
2023-04-30T06:12:43.751Z,101527.09
2023-04-30T06:15:12.289Z,101528.16
2023-04-30T06:17:40.753Z,101526.91
2023-04-30T06:20:23.324Z,101529.19
2023-04-30T06:22:52.048Z,101523.47
2023-04-30T06:25:21.763Z,101526.03
2023-04-30T06:27:54.215Z,101520.47
2023-04-30T06:30:22.943Z,101527.13
2023-04-30T06:32:51.542Z,101511.47
2023-04-30T06:35:19.996Z,101518.31
2023-04-30T06:37:48.398Z,101509.97
2023-04-30T06:40:16.826Z,101516.63
2023-04-30T06:42:47.606Z,101517.66
2023-04-30T06:45:17.750Z,101522.66
2023-04-30T06:47:46.268Z,101514.56
2023-04-30T06:50:15.639Z,101519.41
2023-04-30T06:52:44.337Z,101515.34
2023-04-30T06:55:12.646Z,101523.03
2023-04-30T06:57:41.266Z,101517.56
2023-04-30T07:00:09.855Z,101526.34
2023-04-30T07:02:39.982Z,101536.00
2023-04-30T07:05:09.155Z,101525.94
2023-04-30T07:07:37.850Z,101526.88
2023-04-30T07:10:06.945Z,101526.66
2023-04-30T07:12:35.560Z,101525.00
2023-04-30T07:15:04.195Z,101522.88
2023-04-30T07:17:33.508Z,101521.22
2023-04-30T07:20:04.633Z,101526.47
2023-04-30T07:22:33.466Z,101521.59
2023-04-30T07:25:02.020Z,101528.47
2023-04-30T07:27:30.526Z,101519.16
2023-04-30T07:29:58.974Z,101514.22
2023-04-30T07:32:27.694Z,101519.44
2023-04-30T07:34:56.064Z,101536.13
2023-04-30T07:37:26.328Z,101516.44
2023-04-30T07:39:55.200Z,101516.44
2023-04-30T07:42:27.507Z,101511.41
2023-04-30T07:44:56.628Z,101508.94
2023-04-30T07:47:26.202Z,101515.91
2023-04-30T07:49:55.173Z,101513.47
2023-04-30T07:52:23.800Z,101516.13
2023-04-30T07:54:54.685Z,101507.56
2023-04-30T07:57:23.339Z,101510.91
2023-04-30T07:59:53.188Z,101515.03
2023-04-30T08:02:22.333Z,101519.22
2023-04-30T08:04:50.950Z,101514.75
2023-04-30T08:07:21.100Z,101519.06
2023-04-30T08:09:49.499Z,101513.19
2023-04-30T08:12:19.740Z,101512.38
2023-04-30T08:14:48.622Z,101512.34
2023-04-30T08:17:17.207Z,101512.59
2023-04-30T08:19:45.849Z,101504.63
2023-04-30T08:22:14.160Z,101511.44
2023-04-30T08:24:43.070Z,101510.41
2023-04-30T08:27:11.474Z,101511.19
2023-04-30T08:29:41.537Z,101518.56
2023-04-30T08:32:10.225Z,101513.88
2023-04-30T08:34:40.581Z,101512.47
2023-04-30T08:37:09.223Z,101511.16
2023-04-30T08:39:37.680Z,101515.34
2023-04-30T08:42:09.453Z,101526.31
2023-04-30T08:44:39.773Z,101517.00
2023-04-30T08:47:13.156Z,101516.59
2023-04-30T08:49:41.722Z,101517.78
2023-04-30T08:52:10.617Z,101516.84
2023-04-30T08:54:39.444Z,101519.03
2023-04-30T08:57:07.912Z,101512.31
2023-04-30T08:59:46.204Z,101515.50
2023-04-30T09:02:16.109Z,101516.94
2023-04-30T09:04:44.721Z,101518.69
2023-04-30T09:07:14.563Z,101511.03
2023-04-30T09:09:43.255Z,101515.34
2023-04-30T09:12:13.343Z,101504.16
2023-04-30T09:14:41.905Z,101512.31
2023-04-30T09:17:10.503Z,101506.19
2023-04-30T09:19:40.547Z,101495.59
2023-04-30T09:22:20.064Z,101507.47
2023-04-30T09:24:49.497Z,101495.31
2023-04-30T09:27:18.458Z,101506.66
2023-04-30T09:29:47.792Z,101499.56
2023-04-30T09:32:16.656Z,101488.97
2023-04-30T09:34:46.896Z,101487.41
2023-04-30T09:37:15.928Z,101485.41
2023-04-30T09:39:48.348Z,101491.63
2023-04-30T09:42:16.900Z,101490.44
2023-04-30T09:44:45.365Z,101492.16
2023-04-30T09:47:14.753Z,101492.81
2023-04-30T09:49:44.779Z,101485.78
2023-04-30T09:52:16.482Z,101483.34
2023-04-30T09:54:45.897Z,101491.06
2023-04-30T09:57:15.742Z,101483.25
2023-04-30T09:59:46.058Z,101478.69
2023-04-30T10:02:15.605Z,101477.91
2023-04-30T10:04:45.420Z,101475.97
2023-04-30T10:07:18.270Z,101483.66
2023-04-30T10:09:51.031Z,101466.16
2023-04-30T10:12:22.107Z,101465.56
2023-04-30T10:14:53.815Z,101471.00
2023-04-30T10:17:23.411Z,101460.69
2023-04-30T10:19:53.464Z,101468.69
2023-04-30T10:22:23.778Z,101463.84
2023-04-30T10:24:53.824Z,101452.47
2023-04-30T10:27:22.293Z,101450.88
2023-04-30T10:29:51.643Z,101461.09
2023-04-30T10:32:21.598Z,101451.38
2023-04-30T10:34:53.531Z,101449.97
2023-04-30T10:37:54.341Z,101437.59
2023-04-30T10:40:22.921Z,101441.72
2023-04-30T10:42:52.140Z,101435.63
2023-04-30T10:45:21.457Z,101441.22
2023-04-30T10:47:50.391Z,101433.72
2023-04-30T10:50:20.518Z,101439.41
2023-04-30T10:53:03.139Z,101433.69
2023-04-30T10:55:31.944Z,101435.28
2023-04-30T10:58:00.673Z,101431.00
2023-04-30T11:00:30.064Z,101418.59
2023-04-30T11:02:59.138Z,101418.31
2023-04-30T11:05:35.647Z,101422.38
2023-04-30T11:08:05.996Z,101413.59
2023-04-30T11:10:40.924Z,101414.78
2023-04-30T11:13:11.062Z,101400.38
2023-04-30T11:15:41.753Z,101399.34
2023-04-30T11:18:10.813Z,101397.66
2023-04-30T11:20:41.753Z,101389.44
2023-04-30T11:23:15.467Z,101388.41
2023-04-30T11:25:46.718Z,101389.16
2023-04-30T11:28:16.766Z,101393.41
2023-04-30T11:30:52.426Z,101402.50
2023-04-30T11:33:21.047Z,101398.09
2023-04-30T11:35:52.324Z,101390.69
2023-04-30T11:38:23.650Z,101386.28
2023-04-30T11:40:52.095Z,101389.00
2023-04-30T11:43:26.895Z,101369.91
2023-04-30T11:46:06.523Z,101373.94
2023-04-30T11:48:35.827Z,101372.28
2023-04-30T11:51:04.841Z,101368.94
2023-04-30T11:53:34.553Z,101374.22
2023-04-30T11:56:06.371Z,101376.13
2023-04-30T11:58:35.647Z,101365.94
2023-04-30T12:01:04.011Z,101377.09
2023-04-30T12:03:33.493Z,101361.22
2023-04-30T12:06:02.616Z,101362.50
2023-04-30T12:08:31.268Z,101367.88
2023-04-30T12:11:01.072Z,101367.31
2023-04-30T12:13:31.839Z,101354.13
2023-04-30T12:16:00.871Z,101360.53
2023-04-30T12:18:29.726Z,101351.88
2023-04-30T12:21:12.625Z,101352.81
2023-04-30T12:23:41.484Z,101358.25
2023-04-30T12:26:19.342Z,101351.19
2023-04-30T12:28:48.764Z,101349.09
2023-04-30T12:31:18.438Z,101349.06
2023-04-30T12:33:54.723Z,101343.28
2023-04-30T12:36:23.262Z,101349.16
2023-04-30T12:39:02.798Z,101355.00
2023-04-30T12:41:32.913Z,101342.41
2023-04-30T12:44:20.213Z,101337.59
2023-04-30T12:46:49.138Z,101343.63
2023-04-30T12:49:25.061Z,101342.94
2023-04-30T12:51:53.827Z,101341.88
2023-04-30T12:54:29.170Z,101335.41
2023-04-30T12:57:03.470Z,101333.03
2023-04-30T12:59:32.529Z,101335.34
2023-04-30T13:02:07.959Z,101331.44
2023-04-30T13:04:37.201Z,101326.78
2023-04-30T13:07:05.688Z,101336.53
2023-04-30T13:09:34.375Z,101321.47
2023-04-30T13:12:04.662Z,101321.81
2023-04-30T13:14:33.459Z,101327.22
2023-04-30T13:17:04.997Z,101317.59
2023-04-30T13:19:33.725Z,101313.91
2023-04-30T13:22:02.520Z,101303.84
2023-04-30T13:24:31.356Z,101314.91
2023-04-30T13:27:00.483Z,101303.97
2023-04-30T13:29:30.318Z,101301.78
2023-04-30T13:31:59.236Z,101300.72
2023-04-30T13:34:27.749Z,101300.22
2023-04-30T13:36:56.450Z,101291.50
2023-04-30T13:39:24.876Z,101288.47
2023-04-30T13:41:53.358Z,101296.50
2023-04-30T13:44:21.828Z,101286.38
2023-04-30T13:46:51.684Z,101286.47
2023-04-30T13:49:20.228Z,101274.16
2023-04-30T13:51:48.676Z,101285.00
2023-04-30T13:54:17.173Z,101273.28
2023-04-30T13:56:45.816Z,101270.78
2023-04-30T13:59:14.237Z,101270.44
2023-04-30T14:01:42.716Z,101272.28
2023-04-30T14:04:14.105Z,101271.53
2023-04-30T14:06:45.408Z,101261.50
2023-04-30T14:09:13.852Z,101266.25
2023-04-30T14:11:42.517Z,101255.66
2023-04-30T14:14:10.894Z,101268.25
2023-04-30T14:16:39.422Z,101254.16
2023-04-30T14:19:07.950Z,101265.22
2023-04-30T14:21:38.094Z,101256.50
2023-04-30T14:24:07.692Z,101250.84
2023-04-30T14:26:36.665Z,101256.72
2023-04-30T14:29:05.192Z,101252.25
2023-04-30T14:31:33.782Z,101241.19
2023-04-30T14:34:02.154Z,101243.59
2023-04-30T14:36:30.680Z,101243.63
2023-04-30T14:39:00.665Z,101233.91
2023-04-30T14:41:29.279Z,101240.59
2023-04-30T14:43:57.759Z,101242.41
2023-04-30T14:46:26.520Z,101230.53
2023-04-30T14:48:55.375Z,101228.97
2023-04-30T14:51:25.862Z,101228.03
2023-04-30T14:53:57.906Z,101224.88
2023-04-30T14:56:29.555Z,101224.25
2023-04-30T14:58:58.035Z,101215.72
2023-04-30T15:01:28.496Z,101219.56
2023-04-30T15:03:57.444Z,101223.06
2023-04-30T15:06:26.378Z,101221.69
2023-04-30T15:08:54.761Z,101224.22
2023-04-30T15:11:24.229Z,101219.47
2023-04-30T15:13:54.583Z,101212.06
2023-04-30T15:16:23.281Z,101208.94
2023-04-30T15:18:51.999Z,101215.84
2023-04-30T15:21:20.447Z,101207.78
2023-04-30T15:23:49.800Z,101208.75
2023-04-30T15:26:18.242Z,101201.44
2023-04-30T15:28:46.870Z,101209.47
2023-04-30T15:31:17.130Z,101202.25
2023-04-30T15:33:45.628Z,101204.59
2023-04-30T15:36:14.284Z,101200.22
2023-04-30T15:38:42.769Z,101194.19
2023-04-30T15:41:11.466Z,101193.75
2023-04-30T15:43:39.858Z,101188.50
2023-04-30T15:46:08.642Z,101180.53
2023-04-30T15:48:38.646Z,101180.91
2023-04-30T15:51:07.442Z,101178.09
2023-04-30T15:53:36.303Z,101171.09
2023-04-30T15:56:05.525Z,101173.50
2023-04-30T15:58:34.368Z,101173.63
2023-04-30T16:01:03.150Z,101165.78
2023-04-30T16:03:32.358Z,101161.47
2023-04-30T16:06:02.841Z,101158.50
2023-04-30T16:08:31.502Z,101156.19
2023-04-30T16:11:01.200Z,101152.53
2023-04-30T16:13:29.713Z,101141.47
2023-04-30T16:15:58.156Z,101135.28
2023-04-30T16:18:26.762Z,101139.09
2023-04-30T16:20:55.162Z,101142.47
2023-04-30T16:23:24.910Z,101139.69
2023-04-30T16:25:53.427Z,101143.28
2023-04-30T16:28:23.369Z,101131.97
2023-04-30T16:30:52.305Z,101137.84
2023-04-30T16:33:21.669Z,101139.19
2023-04-30T16:35:50.104Z,101126.91
2023-04-30T16:38:19.049Z,101131.06
2023-04-30T16:40:49.229Z,101128.59
2023-04-30T16:43:17.719Z,101123.47
2023-04-30T16:45:46.541Z,101129.19
2023-04-30T16:48:14.995Z,101123.16
2023-04-30T16:50:43.668Z,101121.59
2023-04-30T16:53:13.662Z,101119.97
2023-04-30T16:55:42.376Z,101115.00
2023-04-30T16:58:12.825Z,101114.69
2023-04-30T17:00:43.815Z,101110.16
2023-04-30T17:03:12.859Z,101112.91
2023-04-30T17:05:43.559Z,101111.16
2023-04-30T17:08:12.320Z,101126.13
2023-04-30T17:10:41.463Z,101115.03
2023-04-30T17:13:14.936Z,101109.16
2023-04-30T17:15:50.792Z,101107.13
2023-04-30T17:18:20.842Z,101106.63
2023-04-30T17:20:53.050Z,101104.53
2023-04-30T17:23:22.558Z,101104.03
2023-04-30T17:25:54.161Z,101107.94
2023-04-30T17:28:24.460Z,101109.09
2023-04-30T17:30:53.809Z,101102.06
2023-04-30T17:33:22.694Z,101106.94
2023-04-30T17:35:51.430Z,101111.34
2023-04-30T17:38:20.517Z,101105.50
2023-04-30T17:40:53.318Z,101110.34
2023-04-30T17:43:25.981Z,101108.25
2023-04-30T17:45:57.550Z,101105.16
2023-04-30T17:48:26.629Z,101104.69
2023-04-30T17:50:55.779Z,101097.34
2023-04-30T17:53:24.723Z,101098.94
2023-04-30T17:55:53.853Z,101095.66
2023-04-30T17:58:22.965Z,101102.25
2023-04-30T18:00:56.674Z,101098.28
2023-04-30T18:03:26.317Z,101103.13
2023-04-30T18:05:55.608Z,101098.81
2023-04-30T18:08:24.277Z,101098.34
2023-04-30T18:10:54.306Z,101101.19
2023-04-30T18:13:23.094Z,101097.97
2023-04-30T18:15:53.171Z,101094.47
2023-04-30T18:18:24.314Z,101090.00
2023-04-30T18:20:53.314Z,101089.13
2023-04-30T18:23:22.640Z,101086.59
2023-04-30T18:25:51.796Z,101085.09
2023-04-30T18:28:20.720Z,101083.28
2023-04-30T18:30:49.896Z,101092.69
2023-04-30T18:33:20.054Z,101088.28
2023-04-30T18:35:51.495Z,101094.81
2023-04-30T18:38:20.718Z,101080.25
2023-04-30T18:40:54.207Z,101086.25
2023-04-30T18:43:23.386Z,101094.00
2023-04-30T18:45:52.738Z,101078.25
2023-04-30T18:48:23.882Z,101085.28
2023-04-30T18:50:52.439Z,101084.31
2023-04-30T18:53:21.483Z,101079.81
2023-04-30T18:55:50.310Z,101072.50
2023-04-30T18:58:19.666Z,101080.41
2023-04-30T19:00:49.509Z,101079.38
2023-04-30T19:03:18.194Z,101078.97
2023-04-30T19:05:48.588Z,101076.84
2023-04-30T19:08:17.595Z,101083.09
2023-04-30T19:10:49.093Z,101080.97
2023-04-30T19:13:18.582Z,101083.41
2023-04-30T19:15:49.588Z,101080.81
2023-04-30T19:18:18.024Z,101092.91
2023-04-30T19:20:57.114Z,101085.38
2023-04-30T19:23:25.588Z,101084.78
2023-04-30T19:25:54.052Z,101086.19
2023-04-30T19:28:22.702Z,101088.41
2023-04-30T19:30:51.896Z,101092.16
2023-04-30T19:33:21.531Z,101082.44
2023-04-30T19:35:51.252Z,101086.09
2023-04-30T19:38:22.577Z,101094.19
2023-04-30T19:40:53.996Z,101091.31
2023-04-30T19:43:24.231Z,101099.31
2023-04-30T19:45:53.907Z,101088.41
2023-04-30T19:48:22.836Z,101088.47
2023-04-30T19:50:53.526Z,101094.66
2023-04-30T19:53:31.763Z,101093.63
2023-04-30T19:56:01.543Z,101090.28
2023-04-30T19:58:30.534Z,101088.13
2023-04-30T20:01:04.811Z,101089.81
2023-04-30T20:03:37.129Z,101094.19
2023-04-30T20:06:16.164Z,101084.06
2023-04-30T20:08:47.234Z,101087.72
2023-04-30T20:11:22.766Z,101083.59
2023-04-30T20:13:55.685Z,101088.13
2023-04-30T20:16:24.303Z,101082.44
2023-04-30T20:18:52.795Z,101081.41
2023-04-30T20:21:29.044Z,101085.47
2023-04-30T20:24:00.507Z,101082.78
2023-04-30T20:26:29.307Z,101079.75
2023-04-30T20:28:58.116Z,101086.66
2023-04-30T20:31:31.385Z,101080.13
2023-04-30T20:34:00.663Z,101079.31
2023-04-30T20:36:31.598Z,101079.31
2023-04-30T20:39:01.602Z,101079.75
2023-04-30T20:41:30.498Z,101077.66
2023-04-30T20:44:00.048Z,101077.59
2023-04-30T20:46:28.934Z,101077.44
2023-04-30T20:49:02.456Z,101085.41
2023-04-30T20:51:33.926Z,101075.63
2023-04-30T20:54:11.367Z,101078.97
2023-04-30T20:56:40.434Z,101074.38
2023-04-30T20:59:08.977Z,101080.97
2023-04-30T21:01:37.595Z,101070.97
2023-04-30T21:04:06.818Z,101068.38
2023-04-30T21:06:35.233Z,101078.72
2023-04-30T21:09:06.202Z,101075.53
2023-04-30T21:11:34.689Z,101068.13
2023-04-30T21:14:03.010Z,101072.78
2023-04-30T21:16:31.772Z,101068.00
2023-04-30T21:19:00.844Z,101070.72
2023-04-30T21:21:29.933Z,101071.34
2023-04-30T21:24:00.933Z,101064.25
2023-04-30T21:26:30.713Z,101062.31
2023-04-30T21:28:59.185Z,101061.56
2023-04-30T21:31:42.159Z,101060.56
2023-04-30T21:34:10.735Z,101065.50
2023-04-30T21:36:39.208Z,101057.09
2023-04-30T21:39:07.663Z,101066.41
2023-04-30T21:41:37.456Z,101064.53
2023-04-30T21:44:06.004Z,101054.59
2023-04-30T21:46:34.490Z,101042.06
2023-04-30T21:49:02.996Z,101040.09
2023-04-30T21:51:31.971Z,101043.41
2023-04-30T21:54:00.286Z,101039.38
2023-04-30T21:56:28.644Z,101044.38
2023-04-30T21:58:58.761Z,101040.31
2023-04-30T22:01:30.096Z,101036.22
2023-04-30T22:03:58.960Z,101035.97
2023-04-30T22:06:28.682Z,101036.25
2023-04-30T22:08:57.521Z,101033.81
2023-04-30T22:11:25.933Z,101031.59
2023-04-30T22:14:15.987Z,101027.53
2023-04-30T22:16:44.471Z,101024.81
2023-04-30T22:19:12.900Z,101014.16
2023-04-30T22:21:41.443Z,101013.31
2023-04-30T22:24:09.986Z,101010.41
2023-04-30T22:26:38.382Z,101007.75
2023-04-30T22:29:06.949Z,101004.47
2023-04-30T22:31:36.943Z,101005.00
2023-04-30T22:34:06.694Z,101005.31
2023-04-30T22:36:35.163Z,100993.00
2023-04-30T22:39:04.051Z,100997.16
2023-04-30T22:41:34.217Z,100990.03
2023-04-30T22:44:03.008Z,100995.53
2023-04-30T22:46:33.568Z,100991.50
2023-04-30T22:49:03.656Z,100990.16
2023-04-30T22:51:34.717Z,100988.53
2023-04-30T22:54:03.605Z,100985.50
2023-04-30T22:56:33.884Z,100987.44
2023-04-30T22:59:02.468Z,100980.34
2023-04-30T23:01:30.916Z,100985.56
2023-04-30T23:03:59.467Z,100982.31
2023-04-30T23:06:31.118Z,100979.34
2023-04-30T23:09:00.173Z,100973.41
2023-04-30T23:11:28.588Z,100976.69
2023-04-30T23:13:57.165Z,100976.16
2023-04-30T23:16:25.610Z,100975.59
2023-04-30T23:18:54.008Z,100974.22
2023-04-30T23:21:22.648Z,100963.56
2023-04-30T23:23:52.652Z,100966.31
2023-04-30T23:26:24.304Z,100964.63
2023-04-30T23:28:53.450Z,100967.13
2023-04-30T23:31:22.202Z,100963.09
2023-04-30T23:33:50.956Z,100968.53
2023-04-30T23:36:19.392Z,100962.56
2023-04-30T23:38:48.074Z,100958.19
2023-04-30T23:41:17.837Z,100957.94
2023-04-30T23:43:46.133Z,100957.69
2023-04-30T23:46:16.017Z,100956.94
2023-04-30T23:48:44.441Z,100954.47
2023-04-30T23:51:12.896Z,100948.50
2023-04-30T23:53:41.527Z,100937.59
2023-04-30T23:56:09.865Z,100937.06
2023-04-30T23:58:39.554Z,100940.84
